Airfield :
LOGIN :

Register | Disclaimer

   EN    FR    IT 

 










Legend :    VFR   Marginal VFR   IFR   Intensive IFR   Very Intensive IFR
Visi :
Ceiling :
>= 8 km
>= 3000ft
5 to 8 km
1000 to 3000 ft
1500m to 5 km
500 to 1000 ft
800 to 1500m
200 to 500 ft
< 800m
< 200 ft
Symbols :   Thunderstorms  Fog  Heavy snow  Heavy precipitations  Wind > 20 kt
SIGMETs :     Misc.  Thunderstorms  Icing  Turbulence  Mountain Waves  Volcanic Ashes






- Airport Elevation : 408 ft
- IATA code : FKB


EDSB - Karlsruhe Baden Baden

CURRENT METAR :
  • 070820Z 04005KT CAVOK 00/M05 Q1025

EXPIRED METARs :
  • 070750Z 04004KT CAVOK M01/M05 Q1025
  • 070720Z 06004KT CAVOK M01/M05 Q1025
  • 070650Z 05001KT CAVOK M02/M06 Q1024
  • 070620Z VRB01KT CAVOK M03/M06 Q1024
  • 070550Z 00000KT CAVOK M04/M06 Q1024

TAF TAF EDSB
Valid from the 07 at 06:00 until the 08 at 06:00 UTC


070500Z 0706/0806 VRB03KT CAVOK
BECMG 0708/0711 01005KT



MET'MAP, your aeronautical weather chart ! - Copyright ORBIFLY December 2007 - Disclaimer

ORBIFLY MET'MAP TEAM :

Programming & Development : Alexandra Zaïnal
Concept & original design : Baudouin d'Aumeries
Assistance for programming : Marc-Olivier Méhu
Technical & hardware support : Manuel Goepfert

Contact : metmap@orbifly.com




SOURCES & CREDITS :

   NOAA